createdAt,value
2018-10-02T00:02:08.846Z,99.90
2018-10-02T00:04:37.352Z,99.90
2018-10-02T00:07:06.330Z,99.90
2018-10-02T00:09:35.006Z,99.90
2018-10-02T00:12:10.081Z,99.90
2018-10-02T00:14:38.830Z,99.90
2018-10-02T00:17:07.549Z,99.90
2018-10-02T00:19:36.378Z,99.90
2018-10-02T00:22:04.616Z,99.90
2018-10-02T00:24:32.858Z,99.90
2018-10-02T00:27:01.108Z,99.90
2018-10-02T00:29:29.349Z,99.90
2018-10-02T00:31:57.747Z,99.90
2018-10-02T00:34:26.009Z,99.90
2018-10-02T00:36:54.566Z,99.90
2018-10-02T00:39:22.813Z,99.90
2018-10-02T00:41:51.069Z,99.90
2018-10-02T00:44:19.340Z,99.90
2018-10-02T00:46:48.286Z,99.90
2018-10-02T00:49:16.537Z,99.90
2018-10-02T00:51:45.216Z,99.90
2018-10-02T00:54:13.493Z,99.90
2018-10-02T00:56:41.761Z,99.90
2018-10-02T00:59:10.661Z,99.90
2018-10-02T01:01:39.362Z,99.90
2018-10-02T01:04:07.637Z,99.90
2018-10-02T01:06:35.921Z,99.90
2018-10-02T01:09:07.502Z,99.90
2018-10-02T01:11:36.208Z,99.90
2018-10-02T01:14:05.285Z,99.90
2018-10-02T01:16:34.145Z,99.90
2018-10-02T01:19:02.464Z,99.90
2018-10-02T01:21:31.370Z,99.90
2018-10-02T01:23:59.613Z,99.90
2018-10-02T01:26:27.874Z,99.90
2018-10-02T01:28:56.153Z,99.90
2018-10-02T01:31:24.834Z,99.90
2018-10-02T01:33:53.181Z,99.90
2018-10-02T01:36:21.427Z,99.90
2018-10-02T01:38:50.109Z,99.90
2018-10-02T01:41:18.357Z,99.90
2018-10-02T01:43:46.593Z,99.90
2018-10-02T01:46:15.381Z,99.90
2018-10-02T01:48:43.710Z,99.90
2018-10-02T01:51:12.557Z,99.90
2018-10-02T01:53:41.106Z,99.90
2018-10-02T01:56:10.249Z,99.90
2018-10-02T01:58:39.341Z,99.90
2018-10-02T02:01:07.643Z,99.90
2018-10-02T02:03:36.197Z,99.90
2018-10-02T02:06:04.472Z,99.90
2018-10-02T02:08:33.113Z,99.90
2018-10-02T02:11:01.362Z,99.90
2018-10-02T02:13:30.042Z,99.90
2018-10-02T02:15:59.009Z,99.90
2018-10-02T02:18:27.293Z,99.90
2018-10-02T02:20:55.537Z,99.90
2018-10-02T02:23:23.814Z,99.90
2018-10-02T02:25:52.345Z,99.90
2018-10-02T02:28:21.007Z,99.90
2018-10-02T02:30:49.821Z,99.90
2018-10-02T02:33:18.050Z,99.90
2018-10-02T02:35:46.302Z,99.90
2018-10-02T02:38:14.721Z,99.90
2018-10-02T02:40:43.018Z,99.90
2018-10-02T02:43:11.365Z,99.90
2018-10-02T02:45:39.685Z,99.90
2018-10-02T02:48:15.661Z,99.90
2018-10-02T02:50:50.184Z,99.90
2018-10-02T02:53:18.695Z,99.90
2018-10-02T02:55:47.711Z,99.90
2018-10-02T02:58:15.961Z,99.90
2018-10-02T03:00:44.745Z,99.90
2018-10-02T03:03:13.517Z,99.90
2018-10-02T03:05:41.788Z,99.90
2018-10-02T03:08:10.392Z,99.90
2018-10-02T03:10:38.645Z,99.90
2018-10-02T03:13:06.898Z,99.90
2018-10-02T03:15:35.909Z,99.90
2018-10-02T03:18:04.750Z,99.90
2018-10-02T03:20:33.010Z,99.90
2018-10-02T03:23:01.267Z,99.90
2018-10-02T03:25:29.693Z,99.90
2018-10-02T03:27:57.990Z,99.90
2018-10-02T03:30:26.362Z,99.90
2018-10-02T03:32:54.656Z,99.90
2018-10-02T03:35:22.913Z,99.90
2018-10-02T03:37:51.221Z,99.90
2018-10-02T03:40:19.559Z,99.90
2018-10-02T03:42:48.176Z,99.90
2018-10-02T03:45:16.506Z,99.90
2018-10-02T03:47:45.598Z,99.90
2018-10-02T03:50:14.607Z,99.90
2018-10-02T03:52:42.855Z,99.90
2018-10-02T03:55:11.114Z,99.90
2018-10-02T03:57:39.390Z,99.90
2018-10-02T04:00:08.144Z,99.90
2018-10-02T04:02:36.698Z,99.90
2018-10-02T04:05:05.009Z,99.90
2018-10-02T04:07:34.564Z,99.90
2018-10-02T04:10:02.819Z,99.90
2018-10-02T04:12:31.293Z,99.90
2018-10-02T04:15:00.210Z,99.90
2018-10-02T04:17:28.847Z,99.90
2018-10-02T04:19:57.097Z,99.90
2018-10-02T04:22:25.328Z,99.90
2018-10-02T04:24:53.625Z,99.90
2018-10-02T04:27:21.873Z,99.90
2018-10-02T04:29:51.525Z,99.90
2018-10-02T04:32:20.337Z,99.90
2018-10-02T04:34:48.605Z,99.90
2018-10-02T04:37:16.854Z,99.90
2018-10-02T04:39:45.134Z,99.90
2018-10-02T04:42:13.407Z,99.90
2018-10-02T04:44:41.778Z,99.90
2018-10-02T04:47:10.258Z,99.90
2018-10-02T04:49:38.535Z,99.90
2018-10-02T04:52:07.044Z,99.90
2018-10-02T04:54:35.314Z,99.90
2018-10-02T04:57:03.977Z,99.90
2018-10-02T04:59:32.877Z,99.90
2018-10-02T05:02:01.729Z,99.90
2018-10-02T05:04:30.037Z,99.90
2018-10-02T05:06:58.293Z,99.90
2018-10-02T05:09:26.767Z,99.90
2018-10-02T05:11:55.031Z,99.90
2018-10-02T05:14:25.454Z,99.90
2018-10-02T05:16:54.030Z,99.90
2018-10-02T05:19:22.774Z,99.90
2018-10-02T05:21:51.058Z,99.90
2018-10-02T05:24:19.355Z,99.90
2018-10-02T05:26:47.650Z,99.90
2018-10-02T05:29:15.920Z,99.90
2018-10-02T05:31:44.238Z,99.90
2018-10-02T05:34:13.030Z,99.90
2018-10-02T05:36:41.305Z,99.90
2018-10-02T05:39:09.686Z,99.90
2018-10-02T05:41:38.039Z,99.90
2018-10-02T05:44:06.463Z,99.90
2018-10-02T05:46:34.835Z,99.90
2018-10-02T05:49:03.273Z,99.90
2018-10-02T05:51:32.116Z,99.90
2018-10-02T05:54:00.357Z,99.90
2018-10-02T05:56:28.638Z,99.90
2018-10-02T05:58:57.277Z,99.90
2018-10-02T06:01:25.565Z,99.90
2018-10-02T06:03:54.623Z,99.90
2018-10-02T06:06:23.337Z,99.90
2018-10-02T06:08:51.885Z,99.90
2018-10-02T06:11:20.444Z,99.90
2018-10-02T06:13:48.719Z,99.90
2018-10-02T06:16:17.973Z,99.90
2018-10-02T06:18:46.268Z,99.90
2018-10-02T06:21:14.575Z,99.90
2018-10-02T06:23:42.845Z,99.90
2018-10-02T06:26:11.133Z,99.90
2018-10-02T06:28:39.518Z,99.90
2018-10-02T06:31:07.842Z,99.90
2018-10-02T06:33:36.617Z,99.90
2018-10-02T06:36:04.885Z,99.90
2018-10-02T06:38:33.870Z,99.90
2018-10-02T06:41:02.049Z,99.90
2018-10-02T06:43:31.206Z,99.90
2018-10-02T06:45:59.757Z,99.90
2018-10-02T06:48:28.051Z,99.90
2018-10-02T06:50:57.189Z,99.90
2018-10-02T06:53:25.449Z,99.90
2018-10-02T06:55:53.726Z,99.90
2018-10-02T06:58:22.197Z,99.90
2018-10-02T07:00:50.908Z,99.90
2018-10-02T07:03:20.134Z,99.90
2018-10-02T07:05:49.070Z,99.90
2018-10-02T07:08:17.837Z,99.90
2018-10-02T07:10:46.418Z,99.90
2018-10-02T07:13:14.711Z,99.90
2018-10-02T07:15:43.782Z,99.90
2018-10-02T07:18:12.054Z,99.90
2018-10-02T07:20:40.484Z,99.90
2018-10-02T07:23:08.702Z,99.90
2018-10-02T07:25:36.938Z,99.90
2018-10-02T07:28:05.426Z,99.90
2018-10-02T07:30:33.656Z,99.90
2018-10-02T07:33:02.007Z,99.90
2018-10-02T07:35:30.946Z,99.90
2018-10-02T07:37:59.213Z,99.90
2018-10-02T07:40:27.638Z,99.90
2018-10-02T07:42:55.886Z,99.90
2018-10-02T07:45:24.158Z,99.90
2018-10-02T07:47:52.576Z,99.90
2018-10-02T07:50:21.333Z,99.90
2018-10-02T07:52:49.593Z,99.90
2018-10-02T07:55:18.531Z,99.90
2018-10-02T07:57:47.218Z,99.90
2018-10-02T08:00:16.162Z,99.90
2018-10-02T08:02:45.224Z,99.90
2018-10-02T08:05:13.490Z,99.90
2018-10-02T08:07:42.191Z,99.90
2018-10-02T08:10:10.486Z,99.90
2018-10-02T08:12:39.751Z,99.90
2018-10-02T08:15:09.004Z,99.90
2018-10-02T08:17:37.837Z,99.90
2018-10-02T08:20:06.263Z,99.90
2018-10-02T08:22:34.370Z,99.30
2018-10-02T08:25:03.227Z,99.20
2018-10-02T08:27:31.476Z,99.20
2018-10-02T08:29:59.819Z,98.50
2018-10-02T08:32:28.081Z,95.60
2018-10-02T08:34:56.327Z,96.30
2018-10-02T08:37:24.697Z,94.40
2018-10-02T08:39:52.990Z,94.20
2018-10-02T08:42:21.272Z,91.90
2018-10-02T08:44:49.558Z,92.30
2018-10-02T08:47:17.862Z,92.50
2018-10-02T08:49:46.889Z,93.30
2018-10-02T08:52:15.815Z,95.60
2018-10-02T08:57:04.682Z,94.70
2018-10-02T08:59:32.961Z,93.80
2018-10-02T09:02:01.898Z,93.00
2018-10-02T09:04:30.198Z,93.70
2018-10-02T09:06:58.666Z,94.70
2018-10-02T09:09:27.263Z,93.70
2018-10-02T09:11:55.537Z,93.70
2018-10-02T09:14:23.895Z,94.70
2018-10-02T09:16:52.646Z,95.10
2018-10-02T09:19:20.931Z,95.20
2018-10-02T09:21:49.818Z,95.60
2018-10-02T09:24:18.776Z,96.00
2018-10-02T09:26:47.038Z,95.30
2018-10-02T09:29:15.321Z,94.90
2018-10-02T09:31:49.114Z,95.80
2018-10-02T09:34:24.564Z,96.30
2018-10-02T09:36:58.157Z,96.20
2018-10-02T09:39:31.980Z,96.20
2018-10-02T09:42:05.426Z,96.20
2018-10-02T09:44:34.270Z,96.90
2018-10-02T09:47:02.542Z,97.00
2018-10-02T09:49:30.816Z,94.60
2018-10-02T09:51:59.854Z,94.10
2018-10-02T09:54:28.102Z,93.90
2018-10-02T09:56:57.130Z,94.60
2018-10-02T09:59:26.085Z,94.50
2018-10-02T10:02:00.935Z,94.30
2018-10-02T10:04:29.681Z,92.30
2018-10-02T10:06:58.338Z,92.90
2018-10-02T10:09:26.837Z,93.10
2018-10-02T10:11:55.089Z,93.70
2018-10-02T10:14:23.334Z,95.40
2018-10-02T10:16:52.004Z,93.80
2018-10-02T10:19:20.126Z,94.30
2018-10-02T10:21:48.405Z,94.10
2018-10-02T10:24:16.697Z,95.70
2018-10-02T10:26:44.954Z,95.90
2018-10-02T10:29:13.281Z,95.60
2018-10-02T10:31:41.594Z,95.70
2018-10-02T10:34:10.315Z,94.50
2018-10-02T10:36:38.566Z,92.40
2018-10-02T10:41:35.726Z,90.50
2018-10-02T10:44:04.005Z,88.40
2018-10-02T10:46:32.351Z,85.30
2018-10-02T10:49:00.582Z,87.30
2018-10-02T10:51:29.762Z,88.00
2018-10-02T10:53:58.046Z,90.20
2018-10-02T10:56:26.987Z,86.80
2018-10-02T10:58:55.323Z,87.10
2018-10-02T11:01:24.226Z,86.70
2018-10-02T11:03:53.266Z,88.10
2018-10-02T11:06:21.518Z,88.30
2018-10-02T11:08:50.635Z,89.30
2018-10-02T11:11:18.881Z,89.10
2018-10-02T11:13:47.135Z,87.40
2018-10-02T11:16:15.926Z,88.10
2018-10-02T11:18:44.198Z,89.20
2018-10-02T11:21:12.462Z,89.60
2018-10-02T11:23:40.813Z,89.90
2018-10-02T11:26:09.498Z,86.50
2018-10-02T11:28:38.496Z,86.90
2018-10-02T11:31:07.230Z,83.30
2018-10-02T11:33:35.487Z,83.30
2018-10-02T11:36:03.762Z,84.90
2018-10-02T11:38:32.019Z,85.20
2018-10-02T11:41:00.372Z,85.00
2018-10-02T11:43:28.924Z,84.10
2018-10-02T11:45:57.146Z,84.30
2018-10-02T11:48:25.441Z,83.80
2018-10-02T11:50:54.647Z,84.10
2018-10-02T11:53:23.639Z,84.30
2018-10-02T11:55:52.640Z,84.90
2018-10-02T11:58:20.858Z,83.40
2018-10-02T12:00:49.198Z,82.90
2018-10-02T12:03:18.052Z,84.10
2018-10-02T12:05:46.306Z,84.40
2018-10-02T12:08:16.254Z,86.00
2018-10-02T12:10:44.601Z,86.00
2018-10-02T12:13:12.932Z,86.70
2018-10-02T12:17:10.613Z,88.00
2018-10-02T12:19:38.917Z,87.60
2018-10-02T12:22:07.755Z,88.60
2018-10-02T12:24:36.029Z,86.50
2018-10-02T12:27:04.306Z,87.10
2018-10-02T12:29:32.586Z,84.90
2018-10-02T12:32:00.869Z,85.10
2018-10-02T12:34:29.239Z,84.00
2018-10-02T12:36:57.529Z,84.40
2018-10-02T12:39:25.903Z,84.80
2018-10-02T12:41:54.099Z,86.00
2018-10-02T12:44:22.394Z,87.50
2018-10-02T12:46:50.832Z,88.30
2018-10-02T12:49:19.146Z,86.00
2018-10-02T12:51:48.194Z,85.20
2018-10-02T12:54:16.450Z,85.40
2018-10-02T12:56:45.333Z,85.90
2018-10-02T12:59:13.671Z,86.80
2018-10-02T13:01:42.834Z,89.20
2018-10-02T13:04:11.114Z,90.60
2018-10-02T13:06:40.382Z,88.60
2018-10-02T13:09:09.870Z,88.90
2018-10-02T13:11:38.392Z,86.90
2018-10-02T13:14:07.807Z,88.20
2018-10-02T13:16:36.423Z,89.90
2018-10-02T13:19:04.639Z,88.50
2018-10-02T13:21:32.896Z,89.80
2018-10-02T13:24:01.240Z,90.20
2018-10-02T13:26:29.482Z,89.60
2018-10-02T13:28:57.886Z,90.60
2018-10-02T13:31:26.198Z,90.70
2018-10-02T13:33:54.462Z,90.00
2018-10-02T13:36:22.768Z,90.60
2018-10-02T13:38:51.079Z,91.60
2018-10-02T13:41:19.962Z,91.30
2018-10-02T13:43:48.237Z,91.00
2018-10-02T13:46:16.581Z,91.10
2018-10-02T13:48:45.246Z,91.50
2018-10-02T13:51:13.946Z,90.80
2018-10-02T13:53:43.299Z,91.50
2018-10-02T13:56:12.170Z,90.50
2018-10-02T13:58:40.450Z,90.50
2018-10-02T14:01:09.641Z,90.90
2018-10-02T14:03:38.513Z,91.20
2018-10-02T14:06:06.886Z,90.80
2018-10-02T14:08:35.992Z,89.60
2018-10-02T14:11:04.268Z,89.90
2018-10-02T14:13:32.558Z,89.30
2018-10-02T14:16:01.337Z,89.10
2018-10-02T14:18:29.702Z,89.60
2018-10-02T14:20:57.987Z,90.50
2018-10-02T14:23:26.364Z,89.10
2018-10-02T14:25:54.624Z,90.10
2018-10-02T14:28:23.306Z,90.50
2018-10-02T14:30:51.618Z,90.00
2018-10-02T14:33:19.898Z,89.40
2018-10-02T14:35:48.197Z,90.00
2018-10-02T14:38:16.453Z,90.40
2018-10-02T14:40:44.797Z,90.90
2018-10-02T14:43:13.179Z,90.80
2018-10-02T14:45:41.390Z,90.70
2018-10-02T14:48:10.040Z,90.60
2018-10-02T14:50:39.075Z,91.30
2018-10-02T14:53:07.410Z,91.20
2018-10-02T14:55:35.739Z,91.40
2018-10-02T14:58:04.462Z,91.00
2018-10-02T15:00:32.803Z,90.40
2018-10-02T15:03:01.456Z,91.00
2018-10-02T15:05:29.710Z,90.80
2018-10-02T15:07:58.726Z,90.90
2018-10-02T15:10:27.014Z,91.60
2018-10-02T15:12:55.284Z,90.50
2018-10-02T15:15:24.063Z,90.90
2018-10-02T15:17:52.381Z,90.10
2018-10-02T15:20:20.621Z,90.70
2018-10-02T15:22:49.640Z,90.80
2018-10-02T15:25:17.953Z,90.50
2018-10-02T15:27:46.209Z,90.50
2018-10-02T15:30:14.502Z,91.50
2018-10-02T15:32:43.428Z,90.80
2018-10-02T15:35:11.782Z,90.80
2018-10-02T15:37:40.601Z,90.70
2018-10-02T15:40:08.972Z,90.40
2018-10-02T15:42:37.361Z,90.20
2018-10-02T15:45:06.049Z,90.70
2018-10-02T15:47:34.331Z,90.70
2018-10-02T15:50:03.260Z,91.00
2018-10-02T15:52:31.521Z,91.50
2018-10-02T15:54:59.761Z,91.30
2018-10-02T15:57:28.690Z,91.10
2018-10-02T15:59:56.946Z,91.50
2018-10-02T16:02:25.554Z,91.40
2018-10-02T16:04:54.449Z,91.60
2018-10-02T16:07:23.466Z,92.00
2018-10-02T16:09:51.763Z,92.50
2018-10-02T16:12:20.015Z,92.60
2018-10-02T16:14:48.689Z,93.00
2018-10-02T16:17:17.499Z,93.30
2018-10-02T16:19:45.752Z,93.20
2018-10-02T16:22:14.076Z,93.50
2018-10-02T16:24:43.110Z,93.90
2018-10-02T16:27:11.361Z,94.00
2018-10-02T16:29:39.658Z,93.90
2018-10-02T16:32:08.397Z,93.80
2018-10-02T16:34:48.979Z,93.70
2018-10-02T16:37:05.027Z,94.50
2018-10-02T16:39:33.405Z,94.30
2018-10-02T16:44:42.343Z,94.20
2018-10-02T16:47:10.753Z,94.40
2018-10-02T16:49:39.070Z,94.30
2018-10-02T16:52:07.886Z,94.50
2018-10-02T16:54:36.360Z,94.90
2018-10-02T16:57:04.678Z,94.60
2018-10-02T16:59:33.230Z,94.70
2018-10-02T17:02:01.786Z,95.30
2018-10-02T17:04:30.090Z,95.20
2018-10-02T17:06:58.419Z,94.80
2018-10-02T17:09:27.481Z,95.40
2018-10-02T17:11:56.382Z,95.20
2018-10-02T17:14:24.669Z,95.00
2018-10-02T17:16:53.454Z,95.20
2018-10-02T17:19:21.781Z,95.00
2018-10-02T17:21:50.082Z,95.80
2018-10-02T17:24:18.921Z,95.80
2018-10-02T17:26:47.247Z,95.90
2018-10-02T17:29:15.543Z,95.90
2018-10-02T17:31:43.866Z,95.30
2018-10-02T17:34:12.494Z,95.20
2018-10-02T17:36:40.771Z,95.70
2018-10-02T17:39:10.350Z,95.20
2018-10-02T17:41:39.584Z,95.30
2018-10-02T17:44:08.541Z,95.90
2018-10-02T17:46:36.811Z,95.60
2018-10-02T17:49:05.158Z,95.40
2018-10-02T17:51:33.963Z,95.90
2018-10-02T17:54:02.306Z,95.50
2018-10-02T17:56:31.134Z,95.80
2018-10-02T17:58:59.416Z,96.10
2018-10-02T18:01:27.819Z,96.40
2018-10-02T18:03:56.593Z,96.20
2018-10-02T18:06:24.869Z,95.90
2018-10-02T18:08:53.546Z,96.30
2018-10-02T18:11:21.810Z,96.10
2018-10-02T18:13:50.119Z,96.00
2018-10-02T18:16:18.994Z,96.20
2018-10-02T18:18:47.305Z,96.40
2018-10-02T18:21:15.587Z,96.90
2018-10-02T18:23:43.914Z,96.90
2018-10-02T18:26:12.235Z,97.10
2018-10-02T18:28:40.842Z,97.30
2018-10-02T18:31:09.197Z,97.80
2018-10-02T18:33:37.828Z,98.30
2018-10-02T18:36:06.166Z,98.40
2018-10-02T18:38:34.474Z,98.50
2018-10-02T18:41:03.010Z,98.60
2018-10-02T18:43:31.812Z,99.00
2018-10-02T18:46:00.538Z,99.10
2018-10-02T18:48:28.837Z,99.20
2018-10-02T18:50:57.623Z,99.50
2018-10-02T18:53:26.071Z,99.90
2018-10-02T18:55:54.432Z,99.90
2018-10-02T18:58:23.057Z,99.90
2018-10-02T19:00:51.329Z,99.90
2018-10-02T19:03:20.534Z,99.90
2018-10-02T19:05:49.039Z,99.90
2018-10-02T19:08:22.104Z,99.90
2018-10-02T19:11:58.575Z,99.90
2018-10-02T19:14:27.449Z,99.90
2018-10-02T19:16:56.289Z,99.90
2018-10-02T19:19:29.853Z,99.90
2018-10-02T19:21:58.121Z,99.90
2018-10-02T19:24:26.419Z,99.90
2018-10-02T19:26:54.734Z,99.90
2018-10-02T19:29:23.302Z,99.90
2018-10-02T19:31:56.873Z,99.90
2018-10-02T19:34:25.527Z,99.90
2018-10-02T19:36:53.859Z,99.90
2018-10-02T19:39:24.261Z,99.90
2018-10-02T19:41:53.378Z,99.90
2018-10-02T19:44:22.041Z,99.90
2018-10-02T19:46:54.798Z,99.90
2018-10-02T19:49:24.464Z,99.90
2018-10-02T19:52:10.114Z,99.90
2018-10-02T19:54:38.422Z,99.90
2018-10-02T19:57:08.741Z,99.90
2018-10-02T19:59:37.080Z,99.90
2018-10-02T20:02:05.702Z,99.90
2018-10-02T20:04:34.078Z,99.90
2018-10-02T20:07:02.344Z,99.90
2018-10-02T20:09:31.363Z,99.90
2018-10-02T20:11:59.649Z,99.90
2018-10-02T20:14:28.001Z,99.90
2018-10-02T20:16:57.259Z,99.90
2018-10-02T20:19:26.733Z,99.90
2018-10-02T20:21:55.030Z,99.90
2018-10-02T20:24:23.332Z,99.90
2018-10-02T20:26:51.651Z,99.90
2018-10-02T20:29:19.973Z,99.90
2018-10-02T20:31:50.514Z,99.90
2018-10-02T20:34:18.825Z,99.90
2018-10-02T20:36:47.155Z,99.90
2018-10-02T20:39:15.428Z,99.90
2018-10-02T20:41:44.180Z,99.90
2018-10-02T20:44:13.076Z,99.90
2018-10-02T20:46:41.341Z,99.90
2018-10-02T20:49:09.962Z,99.90
2018-10-02T20:51:38.633Z,99.90
2018-10-02T20:54:06.904Z,99.90
2018-10-02T20:56:35.206Z,99.90
2018-10-02T20:59:03.496Z,99.90
2018-10-02T21:01:31.816Z,99.90
2018-10-02T21:04:01.262Z,99.90
2018-10-02T21:06:29.783Z,99.90
2018-10-02T21:08:58.373Z,99.90
2018-10-02T21:11:26.720Z,99.90
2018-10-02T21:13:55.246Z,99.90
2018-10-02T21:16:23.982Z,99.90
2018-10-02T21:18:52.281Z,99.90
2018-10-02T21:21:21.338Z,99.90
2018-10-02T21:23:49.635Z,99.90
2018-10-02T21:26:18.204Z,99.90
2018-10-02T21:28:46.584Z,99.90
2018-10-02T21:31:14.842Z,99.90
2018-10-02T21:33:43.525Z,99.90
2018-10-02T21:36:11.774Z,99.90
2018-10-02T21:38:40.003Z,99.90
2018-10-02T21:41:08.301Z,99.90
2018-10-02T21:43:36.937Z,99.90
2018-10-02T21:46:05.632Z,99.90
2018-10-02T21:48:33.965Z,99.90
2018-10-02T21:51:02.782Z,99.90
2018-10-02T21:53:31.041Z,99.90
2018-10-02T21:55:59.362Z,99.90
2018-10-02T21:58:28.198Z,99.90
2018-10-02T22:01:01.873Z,99.90
2018-10-02T22:05:59.610Z,99.90
2018-10-02T22:08:28.127Z,99.90
2018-10-02T22:10:56.421Z,99.90
2018-10-02T22:13:25.358Z,99.90
2018-10-02T22:15:54.230Z,99.90
2018-10-02T22:18:23.200Z,99.90
2018-10-02T22:20:51.577Z,99.90
2018-10-02T22:23:19.852Z,99.90
2018-10-02T22:25:48.168Z,99.90
2018-10-02T22:28:16.517Z,99.90
2018-10-02T22:30:44.858Z,99.90
2018-10-02T22:33:13.201Z,99.90
2018-10-02T22:35:41.438Z,99.90
2018-10-02T22:38:09.721Z,99.90
2018-10-02T22:40:38.030Z,99.90
2018-10-02T22:43:06.949Z,99.90
2018-10-02T22:45:35.635Z,99.90
2018-10-02T22:48:03.915Z,99.90
2018-10-02T22:50:32.949Z,99.90
2018-10-02T22:53:01.211Z,99.90
2018-10-02T22:55:29.737Z,99.90
2018-10-02T22:57:58.006Z,99.90
2018-10-02T23:00:26.259Z,99.90
2018-10-02T23:02:55.238Z,99.90
2018-10-02T23:05:23.546Z,99.90
2018-10-02T23:07:52.581Z,99.90
2018-10-02T23:10:20.878Z,99.90
2018-10-02T23:12:49.614Z,99.90
2018-10-02T23:15:18.929Z,99.90
2018-10-02T23:17:47.906Z,99.90
2018-10-02T23:20:16.196Z,99.90
2018-10-02T23:22:44.487Z,99.90
2018-10-02T23:25:13.340Z,99.90
2018-10-02T23:27:41.687Z,99.90
2018-10-02T23:30:09.954Z,99.90
2018-10-02T23:32:38.291Z,99.90
2018-10-02T23:35:07.206Z,99.90
2018-10-02T23:37:35.516Z,99.90
2018-10-02T23:40:03.798Z,99.90
2018-10-02T23:42:33.138Z,99.90
2018-10-02T23:45:02.017Z,99.90
2018-10-02T23:47:30.257Z,99.90
2018-10-02T23:49:58.806Z,99.90
2018-10-02T23:52:27.534Z,99.90
2018-10-02T23:54:55.782Z,99.90
2018-10-02T23:57:24.128Z,99.90
2018-10-02T23:59:52.446Z,99.90
